Warren, Arizona
Current Conditions -  °F | °C
As of 9:56 AM on Friday 31 Oct 2014 (Local Time) from KDUG Reporting Station
Clear Clear  
Wind Chill: 75°   Ceiling: Unl
Heat Index: 75°   Visibility: 10mi
Dew Point: 42°   Wind: 17mph
Humidity: 31%   Direction: 100°E
Pressure: 30.14"   Gusts: 26mph
Location:  31.4799°N, 109.96°W
Report Text: KDUG 311656Z AUTO 10015G23KT 10SM CLR 24/06 A3014 RMK AO2 PK WND 09026/1623 SLP144 T02390056
Loading
Personal Weather Stations






























Interactive Weather Map
Tropical Storm Tracking
New forecast layout! Learn more

10-Day Weather Forecast

Advertisements
Track Severe Weather on mobile